sensor_id;sensor_type;location;lat;lon;timestamp;pressure;altitude;pressure_sealevel;temperature;humidity
9423;BME280;65863;49.506;10.400;2023-11-21T00:01:36;97461.47;;;7.11;100.00
9423;BME280;65863;49.506;10.400;2023-11-21T00:04:20;97467.28;;;7.13;100.00
9423;BME280;65863;49.506;10.400;2023-11-21T00:07:05;97459.50;;;7.19;100.00
9423;BME280;65863;49.506;10.400;2023-11-21T00:09:49;97463.19;;;7.14;100.00
9423;BME280;65863;49.506;10.400;2023-11-21T00:12:34;97461.34;;;7.17;100.00
9423;BME280;65863;49.506;10.400;2023-11-21T00:15:18;97453.59;;;7.02;100.00
9423;BME280;65863;49.506;10.400;2023-11-21T00:18:02;97444.94;;;6.92;100.00
9423;BME280;65863;49.506;10.400;2023-11-21T00:20:46;97463.44;;;7.03;100.00
9423;BME280;65863;49.506;10.400;2023-11-21T00:23:30;97415.16;;;6.74;100.00
9423;BME280;65863;49.506;10.400;2023-11-21T00:26:14;97462.09;;;6.96;100.00
9423;BME280;65863;49.506;10.400;2023-11-21T00:29:01;97450.38;;;6.98;100.00
9423;BME280;65863;49.506;10.400;2023-11-21T00:31:45;97432.63;;;6.74;100.00
9423;BME280;65863;49.506;10.400;2023-11-21T00:34:30;97447.50;;;6.90;100.00
9423;BME280;65863;49.506;10.400;2023-11-21T00:37:14;97436.88;;;6.88;100.00
9423;BME280;65863;49.506;10.400;2023-11-21T00:40:00;97442.44;;;6.88;100.00
9423;BME280;65863;49.506;10.400;2023-11-21T00:42:47;97432.50;;;6.80;100.00
9423;BME280;65863;49.506;10.400;2023-11-21T00:45:31;97468.59;;;6.99;100.00
9423;BME280;65863;49.506;10.400;2023-11-21T00:48:15;97467.19;;;7.05;100.00
9423;BME280;65863;49.506;10.400;2023-11-21T00:50:59;97472.78;;;7.05;100.00
9423;BME280;65863;49.506;10.400;2023-11-21T00:53:43;97475.00;;;7.07;100.00
9423;BME280;65863;49.506;10.400;2023-11-21T00:56:27;97475.66;;;7.13;100.00
9423;BME280;65863;49.506;10.400;2023-11-21T00:59:11;97484.63;;;7.19;100.00
9423;BME280;65863;49.506;10.400;2023-11-21T01:01:55;97471.59;;;7.01;100.00
9423;BME280;65863;49.506;10.400;2023-11-21T01:04:39;97486.56;;;6.90;100.00
9423;BME280;65863;49.506;10.400;2023-11-21T01:07:23;97474.59;;;7.03;100.00
9423;BME280;65863;49.506;10.400;2023-11-21T01:10:08;97383.19;;;6.40;100.00
9423;BME280;65863;49.506;10.400;2023-11-21T01:13:12;97473.31;;;7.04;100.00
9423;BME280;65863;49.506;10.400;2023-11-21T01:15:59;97485.66;;;7.30;100.00
9423;BME280;65863;49.506;10.400;2023-11-21T01:18:43;97487.50;;;7.27;100.00
9423;BME280;65863;49.506;10.400;2023-11-21T01:21:27;97483.00;;;7.24;100.00
9423;BME280;65863;49.506;10.400;2023-11-21T01:24:11;97448.63;;;7.08;100.00
9423;BME280;65863;49.506;10.400;2023-11-21T01:26:55;97451.06;;;7.12;100.00
9423;BME280;65863;49.506;10.400;2023-11-21T01:29:39;97447.38;;;7.17;100.00
9423;BME280;65863;49.506;10.400;2023-11-21T01:32:23;97454.75;;;7.28;100.00
9423;BME280;65863;49.506;10.400;2023-11-21T01:35:08;97449.50;;;7.24;100.00
9423;BME280;65863;49.506;10.400;2023-11-21T01:37:53;97465.78;;;7.12;100.00
9423;BME280;65863;49.506;10.400;2023-11-21T01:40:37;97460.25;;;7.20;100.00
9423;BME280;65863;49.506;10.400;2023-11-21T01:43:21;97459.34;;;7.04;100.00
9423;BME280;65863;49.506;10.400;2023-11-21T01:46:05;97465.94;;;7.28;100.00
9423;BME280;65863;49.506;10.400;2023-11-21T01:48:50;97401.69;;;6.85;100.00
9423;BME280;65863;49.506;10.400;2023-11-21T01:51:35;97452.22;;;7.16;100.00
9423;BME280;65863;49.506;10.400;2023-11-21T01:54:20;97448.34;;;7.19;100.00
9423;BME280;65863;49.506;10.400;2023-11-21T01:57:05;97468.84;;;7.22;100.00
9423;BME280;65863;49.506;10.400;2023-11-21T01:59:51;97447.75;;;7.13;100.00
9423;BME280;65863;49.506;10.400;2023-11-21T02:02:38;97437.78;;;7.04;100.00
9423;BME280;65863;49.506;10.400;2023-11-21T02:05:22;97463.81;;;7.20;100.00
9423;BME280;65863;49.506;10.400;2023-11-21T02:08:06;97449.78;;;7.13;100.00
9423;BME280;65863;49.506;10.400;2023-11-21T02:10:53;97444.25;;;6.99;100.00
9423;BME280;65863;49.506;10.400;2023-11-21T02:13:36;97452.13;;;7.09;100.00
9423;BME280;65863;49.506;10.400;2023-11-21T02:16:21;97466.88;;;7.09;100.00
9423;BME280;65863;49.506;10.400;2023-11-21T02:19:07;97474.06;;;7.04;100.00
9423;BME280;65863;49.506;10.400;2023-11-21T02:21:53;97402.31;;;6.57;100.00
9423;BME280;65863;49.506;10.400;2023-11-21T02:24:41;97475.69;;;7.00;100.00
9423;BME280;65863;49.506;10.400;2023-11-21T02:27:26;97452.59;;;6.78;100.00
9423;BME280;65863;49.506;10.400;2023-11-21T02:30:12;97466.03;;;7.01;100.00
9423;BME280;65863;49.506;10.400;2023-11-21T02:32:57;97407.34;;;6.59;100.00
9423;BME280;65863;49.506;10.400;2023-11-21T02:35:42;97470.44;;;6.96;100.00
9423;BME280;65863;49.506;10.400;2023-11-21T02:38:27;97473.16;;;6.88;100.00
9423;BME280;65863;49.506;10.400;2023-11-21T02:41:11;97484.06;;;7.00;100.00
9423;BME280;65863;49.506;10.400;2023-11-21T02:43:55;97465.19;;;6.93;100.00
9423;BME280;65863;49.506;10.400;2023-11-21T02:46:39;97475.94;;;6.88;100.00
9423;BME280;65863;49.506;10.400;2023-11-21T02:49:24;97457.94;;;6.76;100.00
9423;BME280;65863;49.506;10.400;2023-11-21T02:52:08;97476.91;;;6.91;100.00
9423;BME280;65863;49.506;10.400;2023-11-21T02:54:52;97473.38;;;6.91;100.00
9423;BME280;65863;49.506;10.400;2023-11-21T02:57:37;97469.28;;;6.92;100.00
9423;BME280;65863;49.506;10.400;2023-11-21T03:00:20;97449.53;;;6.89;100.00
9423;BME280;65863;49.506;10.400;2023-11-21T03:03:08;97464.78;;;6.88;100.00
9423;BME280;65863;49.506;10.400;2023-11-21T03:05:51;97419.06;;;6.57;100.00
9423;BME280;65863;49.506;10.400;2023-11-21T03:08:35;97480.84;;;6.96;100.00
9423;BME280;65863;49.506;10.400;2023-11-21T03:11:20;97480.22;;;6.89;100.00
9423;BME280;65863;49.506;10.400;2023-11-21T03:14:04;97466.81;;;6.88;100.00
9423;BME280;65863;49.506;10.400;2023-11-21T03:16:48;97483.44;;;6.94;100.00
9423;BME280;65863;49.506;10.400;2023-11-21T03:19:33;97449.53;;;6.55;100.00
9423;BME280;65863;49.506;10.400;2023-11-21T03:22:17;97476.19;;;6.77;100.00
9423;BME280;65863;49.506;10.400;2023-11-21T03:25:01;97476.53;;;6.74;100.00
9423;BME280;65863;49.506;10.400;2023-11-21T03:27:45;97469.03;;;6.68;100.00
9423;BME280;65863;49.506;10.400;2023-11-21T03:30:29;97496.56;;;6.85;100.00
9423;BME280;65863;49.506;10.400;2023-11-21T03:33:13;97482.41;;;6.70;100.00
9423;BME280;65863;49.506;10.400;2023-11-21T03:35:57;97503.53;;;6.92;100.00
9423;BME280;65863;49.506;10.400;2023-11-21T03:38:41;97492.69;;;6.88;100.00
9423;BME280;65863;49.506;10.400;2023-11-21T03:41:25;97486.91;;;6.86;100.00
9423;BME280;65863;49.506;10.400;2023-11-21T03:44:09;97456.69;;;6.64;100.00
9423;BME280;65863;49.506;10.400;2023-11-21T03:46:54;97479.50;;;6.76;100.00
9423;BME280;65863;49.506;10.400;2023-11-21T03:49:38;97481.56;;;6.75;100.00
9423;BME280;65863;49.506;10.400;2023-11-21T03:52:22;97484.78;;;6.79;100.00
9423;BME280;65863;49.506;10.400;2023-11-21T03:55:06;97495.63;;;6.69;100.00
9423;BME280;65863;49.506;10.400;2023-11-21T03:57:51;97490.66;;;6.76;100.00
9423;BME280;65863;49.506;10.400;2023-11-21T04:00:37;97479.31;;;6.60;100.00
9423;BME280;65863;49.506;10.400;2023-11-21T04:03:21;97494.13;;;6.68;100.00
9423;BME280;65863;49.506;10.400;2023-11-21T04:06:05;97480.72;;;6.67;100.00
9423;BME280;65863;49.506;10.400;2023-11-21T04:08:50;97474.53;;;6.47;100.00
9423;BME280;65863;49.506;10.400;2023-11-21T04:11:34;97499.69;;;6.68;100.00
9423;BME280;65863;49.506;10.400;2023-11-21T04:14:18;97497.22;;;6.65;100.00
9423;BME280;65863;49.506;10.400;2023-11-21T04:17:02;97498.91;;;6.81;100.00
9423;BME280;65863;49.506;10.400;2023-11-21T04:19:48;97507.03;;;6.93;100.00
9423;BME280;65863;49.506;10.400;2023-11-21T04:22:31;97496.22;;;6.89;100.00
9423;BME280;65863;49.506;10.400;2023-11-21T04:25:16;97501.03;;;6.88;100.00
9423;BME280;65863;49.506;10.400;2023-11-21T04:28:01;97448.88;;;6.49;100.00
9423;BME280;65863;49.506;10.400;2023-11-21T04:30:45;97488.00;;;6.70;100.00
9423;BME280;65863;49.506;10.400;2023-11-21T04:33:29;97498.81;;;6.87;100.00
9423;BME280;65863;49.506;10.400;2023-11-21T04:36:14;97512.44;;;6.91;100.00
9423;BME280;65863;49.506;10.400;2023-11-21T04:39:17;97513.72;;;6.89;100.00
9423;BME280;65863;49.506;10.400;2023-11-21T04:42:07;97527.53;;;6.95;100.00
9423;BME280;65863;49.506;10.400;2023-11-21T04:44:51;97517.78;;;6.88;100.00
9423;BME280;65863;49.506;10.400;2023-11-21T04:47:36;97506.84;;;6.91;100.00
9423;BME280;65863;49.506;10.400;2023-11-21T04:50:20;97523.56;;;7.04;100.00
9423;BME280;65863;49.506;10.400;2023-11-21T04:53:04;97506.00;;;7.17;100.00
9423;BME280;65863;49.506;10.400;2023-11-21T04:55:49;97501.59;;;7.21;100.00
9423;BME280;65863;49.506;10.400;2023-11-21T04:58:33;97500.28;;;7.22;100.00
9423;BME280;65863;49.506;10.400;2023-11-21T05:01:17;97422.28;;;6.61;100.00
9423;BME280;65863;49.506;10.400;2023-11-21T05:04:01;97506.09;;;7.24;100.00
9423;BME280;65863;49.506;10.400;2023-11-21T05:06:45;97501.19;;;7.17;100.00
9423;BME280;65863;49.506;10.400;2023-11-21T05:09:30;97497.34;;;7.07;100.00
9423;BME280;65863;49.506;10.400;2023-11-21T05:12:15;97508.44;;;6.99;100.00
9423;BME280;65863;49.506;10.400;2023-11-21T05:14:59;97511.34;;;6.94;100.00
9423;BME280;65863;49.506;10.400;2023-11-21T05:17:44;97517.25;;;6.90;100.00
9423;BME280;65863;49.506;10.400;2023-11-21T05:20:29;97525.13;;;6.78;100.00
9423;BME280;65863;49.506;10.400;2023-11-21T05:23:13;97438.75;;;6.11;100.00
9423;BME280;65863;49.506;10.400;2023-11-21T05:25:57;97529.94;;;6.64;100.00
9423;BME280;65863;49.506;10.400;2023-11-21T05:28:41;97471.97;;;6.23;100.00
9423;BME280;65863;49.506;10.400;2023-11-21T05:31:25;97528.03;;;6.59;100.00
9423;BME280;65863;49.506;10.400;2023-11-21T05:34:09;97521.28;;;6.54;100.00
9423;BME280;65863;49.506;10.400;2023-11-21T05:36:53;97531.78;;;6.48;100.00
9423;BME280;65863;49.506;10.400;2023-11-21T05:39:37;97530.94;;;6.40;100.00
9423;BME280;65863;49.506;10.400;2023-11-21T05:42:21;97534.38;;;6.33;100.00
9423;BME280;65863;49.506;10.400;2023-11-21T05:45:05;97555.94;;;6.59;100.00
9423;BME280;65863;49.506;10.400;2023-11-21T05:47:55;97550.34;;;6.59;100.00
9423;BME280;65863;49.506;10.400;2023-11-21T05:50:39;97545.31;;;6.44;100.00
9423;BME280;65863;49.506;10.400;2023-11-21T05:53:23;97554.84;;;6.49;100.00
9423;BME280;65863;49.506;10.400;2023-11-21T05:56:07;97545.31;;;6.44;100.00
9423;BME280;65863;49.506;10.400;2023-11-21T05:58:51;97557.31;;;6.52;100.00
9423;BME280;65863;49.506;10.400;2023-11-21T06:01:36;97559.66;;;6.62;100.00
9423;BME280;65863;49.506;10.400;2023-11-21T06:04:22;97561.38;;;6.51;100.00
9423;BME280;65863;49.506;10.400;2023-11-21T06:07:07;97557.84;;;6.64;100.00
9423;BME280;65863;49.506;10.400;2023-11-21T06:09:52;97556.53;;;6.79;100.00
9423;BME280;65863;49.506;10.400;2023-11-21T06:15:44;97518.50;;;6.41;100.00
9423;BME280;65863;49.506;10.400;2023-11-21T06:18:28;97549.16;;;6.54;100.00
9423;BME280;65863;49.506;10.400;2023-11-21T06:21:13;97573.84;;;6.37;100.00
9423;BME280;65863;49.506;10.400;2023-11-21T06:23:57;97527.44;;;5.94;100.00
9423;BME280;65863;49.506;10.400;2023-11-21T06:26:41;97580.44;;;6.20;100.00
9423;BME280;65863;49.506;10.400;2023-11-21T06:29:25;97588.06;;;6.20;100.00
9423;BME280;65863;49.506;10.400;2023-11-21T06:32:10;97543.53;;;6.01;100.00
9423;BME280;65863;49.506;10.400;2023-11-21T06:34:55;97594.41;;;6.34;100.00
9423;BME280;65863;49.506;10.400;2023-11-21T06:37:39;97605.47;;;6.40;100.00
9423;BME280;65863;49.506;10.400;2023-11-21T06:40:23;97608.47;;;6.42;100.00
9423;BME280;65863;49.506;10.400;2023-11-21T06:43:08;97584.34;;;6.31;100.00
9423;BME280;65863;49.506;10.400;2023-11-21T06:45:52;97560.72;;;6.32;100.00
9423;BME280;65863;49.506;10.400;2023-11-21T06:48:39;97602.25;;;6.49;100.00
9423;BME280;65863;49.506;10.400;2023-11-21T06:52:01;97610.94;;;6.59;100.00
9423;BME280;65863;49.506;10.400;2023-11-21T06:54:50;97619.97;;;6.78;100.00
9423;BME280;65863;49.506;10.400;2023-11-21T06:57:35;97612.66;;;6.62;100.00
9423;BME280;65863;49.506;10.400;2023-11-21T07:00:19;97610.84;;;6.64;100.00
9423;BME280;65863;49.506;10.400;2023-11-21T07:03:03;97614.81;;;6.69;100.00
9423;BME280;65863;49.506;10.400;2023-11-21T07:05:48;97627.47;;;6.83;100.00
9423;BME280;65863;49.506;10.400;2023-11-21T07:08:32;97579.16;;;6.35;100.00
9423;BME280;65863;49.506;10.400;2023-11-21T07:11:16;97630.88;;;6.76;100.00
9423;BME280;65863;49.506;10.400;2023-11-21T07:14:00;97624.25;;;6.79;100.00
9423;BME280;65863;49.506;10.400;2023-11-21T07:16:50;97637.13;;;6.69;100.00
9423;BME280;65863;49.506;10.400;2023-11-21T07:19:36;97657.59;;;6.71;100.00
9423;BME280;65863;49.506;10.400;2023-11-21T07:22:20;97657.97;;;6.95;100.00
9423;BME280;65863;49.506;10.400;2023-11-21T07:25:42;97664.59;;;6.92;100.00
9423;BME280;65863;49.506;10.400;2023-11-21T07:28:26;97660.72;;;6.81;100.00
9423;BME280;65863;49.506;10.400;2023-11-21T07:31:10;97628.00;;;6.68;100.00
9423;BME280;65863;49.506;10.400;2023-11-21T07:33:54;97661.03;;;7.04;100.00
9423;BME280;65863;49.506;10.400;2023-11-21T07:36:41;97682.22;;;7.13;100.00
9423;BME280;65863;49.506;10.400;2023-11-21T07:39:25;97688.75;;;7.29;100.00
9423;BME280;65863;49.506;10.400;2023-11-21T07:42:09;97662.88;;;7.15;100.00
9423;BME280;65863;49.506;10.400;2023-11-21T07:44:54;97675.44;;;7.22;100.00
9423;BME280;65863;49.506;10.400;2023-11-21T07:47:38;97611.38;;;6.89;100.00
9423;BME280;65863;49.506;10.400;2023-11-21T07:50:23;97686.69;;;7.30;100.00
9423;BME280;65863;49.506;10.400;2023-11-21T07:53:07;97685.84;;;7.35;100.00
9423;BME280;65863;49.506;10.400;2023-11-21T07:55:52;97668.63;;;7.44;100.00
9423;BME280;65863;49.506;10.400;2023-11-21T07:58:36;97675.50;;;7.43;100.00
9423;BME280;65863;49.506;10.400;2023-11-21T08:01:20;97672.25;;;7.52;100.00
9423;BME280;65863;49.506;10.400;2023-11-21T08:04:04;97632.53;;;7.46;100.00
9423;BME280;65863;49.506;10.400;2023-11-21T08:06:48;97631.91;;;7.40;100.00
9423;BME280;65863;49.506;10.400;2023-11-21T08:09:32;97675.22;;;7.68;100.00
9423;BME280;65863;49.506;10.400;2023-11-21T08:12:18;97694.50;;;7.92;100.00
9423;BME280;65863;49.506;10.400;2023-11-21T08:15:04;97635.69;;;7.64;100.00
9423;BME280;65863;49.506;10.400;2023-11-21T08:17:49;97678.13;;;7.97;100.00
9423;BME280;65863;49.506;10.400;2023-11-21T08:20:33;97682.31;;;8.03;100.00
9423;BME280;65863;49.506;10.400;2023-11-21T08:23:18;97666.03;;;8.15;100.00
9423;BME280;65863;49.506;10.400;2023-11-21T08:26:02;97657.22;;;8.32;100.00
9423;BME280;65863;49.506;10.400;2023-11-21T08:28:48;97668.41;;;8.53;100.00
9423;BME280;65863;49.506;10.400;2023-11-21T08:31:33;97651.50;;;8.38;100.00
9423;BME280;65863;49.506;10.400;2023-11-21T08:34:17;97657.84;;;8.59;99.69
9423;BME280;65863;49.506;10.400;2023-11-21T08:37:02;97635.09;;;8.42;97.75
9423;BME280;65863;49.506;10.400;2023-11-21T08:39:47;97651.69;;;8.40;97.37
9423;BME280;65863;49.506;10.400;2023-11-21T08:42:51;97663.28;;;8.44;97.87
9423;BME280;65863;49.506;10.400;2023-11-21T08:45:41;97688.19;;;8.13;100.00
9423;BME280;65863;49.506;10.400;2023-11-21T08:48:25;97676.13;;;8.18;100.00
9423;BME280;65863;49.506;10.400;2023-11-21T08:51:12;97672.91;;;8.14;100.00
9423;BME280;65863;49.506;10.400;2023-11-21T08:53:56;97678.97;;;8.05;100.00
9423;BME280;65863;49.506;10.400;2023-11-21T08:56:43;97688.88;;;8.27;100.00
9423;BME280;65863;49.506;10.400;2023-11-21T08:59:27;97694.50;;;8.14;100.00
9423;BME280;65863;49.506;10.400;2023-11-21T09:02:11;97706.66;;;8.16;100.00
9423;BME280;65863;49.506;10.400;2023-11-21T09:04:55;97702.03;;;8.40;100.00
9423;BME280;65863;49.506;10.400;2023-11-21T09:07:40;97689.97;;;8.24;100.00
9423;BME280;65863;49.506;10.400;2023-11-21T09:10:25;97705.56;;;8.40;100.00
9423;BME280;65863;49.506;10.400;2023-11-21T09:13:09;97694.19;;;8.38;100.00
9423;BME280;65863;49.506;10.400;2023-11-21T09:15:54;97702.88;;;8.48;100.00
9423;BME280;65863;49.506;10.400;2023-11-21T09:18:38;97704.13;;;8.60;100.00
9423;BME280;65863;49.506;10.400;2023-11-21T09:21:23;97715.59;;;8.49;100.00
9423;BME280;65863;49.506;10.400;2023-11-21T09:24:08;97676.31;;;8.20;100.00
9423;BME280;65863;49.506;10.400;2023-11-21T09:26:52;97713.69;;;8.31;100.00
9423;BME280;65863;49.506;10.400;2023-11-21T09:29:36;97728.31;;;8.37;100.00
9423;BME280;65863;49.506;10.400;2023-11-21T09:32:23;97605.44;;;7.54;100.00
9423;BME280;65863;49.506;10.400;2023-11-21T09:35:08;97725.72;;;8.60;100.00
9423;BME280;65863;49.506;10.400;2023-11-21T09:37:52;97674.34;;;8.28;100.00
9423;BME280;65863;49.506;10.400;2023-11-21T09:40:37;97718.69;;;8.67;100.00
9423;BME280;65863;49.506;10.400;2023-11-21T09:43:21;97731.41;;;8.68;99.01
9423;BME280;65863;49.506;10.400;2023-11-21T09:46:06;97695.84;;;8.34;98.77
9423;BME280;65863;49.506;10.400;2023-11-21T09:48:54;97711.00;;;8.59;99.74
9423;BME280;65863;49.506;10.400;2023-11-21T09:51:42;97735.69;;;8.69;99.58
9423;BME280;65863;49.506;10.400;2023-11-21T09:54:27;97718.19;;;8.76;99.58
9423;BME280;65863;49.506;10.400;2023-11-21T09:57:13;97712.44;;;8.82;98.77
9423;BME280;65863;49.506;10.400;2023-11-21T09:59:59;97737.00;;;9.25;97.62
9423;BME280;65863;49.506;10.400;2023-11-21T10:02:49;97621.47;;;8.38;95.86
9423;BME280;65863;49.506;10.400;2023-11-21T10:05:35;97717.44;;;8.96;95.87
9423;BME280;65863;49.506;10.400;2023-11-21T10:08:19;97718.81;;;8.82;96.36
9423;BME280;65863;49.506;10.400;2023-11-21T10:11:05;97725.56;;;8.87;97.67
9423;BME280;65863;49.506;10.400;2023-11-21T10:13:55;97711.69;;;9.02;96.82
9423;BME280;65863;49.506;10.400;2023-11-21T10:16:41;97720.78;;;8.95;96.19
9423;BME280;65863;49.506;10.400;2023-11-21T10:19:28;97724.59;;;8.84;96.72
9423;BME280;65863;49.506;10.400;2023-11-21T10:22:16;97714.59;;;8.89;97.81
9423;BME280;65863;49.506;10.400;2023-11-21T10:25:01;97711.22;;;8.90;95.97
9423;BME280;65863;49.506;10.400;2023-11-21T10:27:48;97722.13;;;9.02;95.67
9423;BME280;65863;49.506;10.400;2023-11-21T10:30:34;97729.72;;;9.22;95.58
9423;BME280;65863;49.506;10.400;2023-11-21T10:33:27;97687.22;;;9.03;94.82
9423;BME280;65863;49.506;10.400;2023-11-21T10:36:13;97727.47;;;9.57;93.73
9423;BME280;65863;49.506;10.400;2023-11-21T10:38:57;97714.97;;;9.58;93.33
9423;BME280;65863;49.506;10.400;2023-11-21T10:41:41;97727.50;;;9.65;92.42
9423;BME280;65863;49.506;10.400;2023-11-21T10:44:24;97668.22;;;9.09;93.60
9423;BME280;65863;49.506;10.400;2023-11-21T10:47:10;97729.66;;;9.51;93.37
9423;BME280;65863;49.506;10.400;2023-11-21T10:49:55;97724.50;;;9.63;93.45
9423;BME280;65863;49.506;10.400;2023-11-21T10:52:40;97731.16;;;9.89;91.60
9423;BME280;65863;49.506;10.400;2023-11-21T10:55:26;97698.25;;;9.89;91.85
9423;BME280;65863;49.506;10.400;2023-11-21T10:58:13;97693.63;;;9.99;90.89
9423;BME280;65863;49.506;10.400;2023-11-21T11:00:58;97716.66;;;10.29;89.16
9423;BME280;65863;49.506;10.400;2023-11-21T11:03:44;97728.81;;;10.31;87.85
9423;BME280;65863;49.506;10.400;2023-11-21T11:06:29;97713.81;;;9.98;87.38
9423;BME280;65863;49.506;10.400;2023-11-21T11:09:32;97726.53;;;10.07;88.56
9423;BME280;65863;49.506;10.400;2023-11-21T11:12:39;97668.47;;;9.71;88.57
9423;BME280;65863;49.506;10.400;2023-11-21T11:15:24;97722.97;;;9.98;89.55
9423;BME280;65863;49.506;10.400;2023-11-21T11:18:09;97716.41;;;9.88;88.06
9423;BME280;65863;49.506;10.400;2023-11-21T11:20:54;97732.94;;;9.71;88.86
9423;BME280;65863;49.506;10.400;2023-11-21T11:27:34;97712.69;;;9.49;91.93
9423;BME280;65863;49.506;10.400;2023-11-21T11:34:29;97744.31;;;9.00;94.62
9423;BME280;65863;49.506;10.400;2023-11-21T11:37:38;97728.09;;;8.77;96.13
9423;BME280;65863;49.506;10.400;2023-11-21T11:40:22;97730.09;;;8.69;98.01
9423;BME280;65863;49.506;10.400;2023-11-21T11:43:26;97753.69;;;8.81;98.95
9423;BME280;65863;49.506;10.400;2023-11-21T11:46:43;97741.28;;;8.69;98.71
9423;BME280;65863;49.506;10.400;2023-11-21T11:50:08;97771.88;;;8.67;98.26
9423;BME280;65863;49.506;10.400;2023-11-21T11:53:22;97704.22;;;8.34;98.36
9423;BME280;65863;49.506;10.400;2023-11-21T11:56:32;97713.16;;;8.32;99.45
9423;BME280;65863;49.506;10.400;2023-11-21T11:59:19;97769.59;;;8.86;99.24
9423;BME280;65863;49.506;10.400;2023-11-21T12:02:04;97736.88;;;8.52;99.22
9423;BME280;65863;49.506;10.400;2023-11-21T12:04:48;97763.31;;;8.93;100.00
9423;BME280;65863;49.506;10.400;2023-11-21T12:07:49;97775.34;;;9.02;99.71
9423;BME280;65863;49.506;10.400;2023-11-21T12:10:35;97779.28;;;9.06;98.31
9423;BME280;65863;49.506;10.400;2023-11-21T12:13:20;97777.41;;;9.30;97.33
9423;BME280;65863;49.506;10.400;2023-11-21T12:16:04;97761.88;;;9.00;96.86
9423;BME280;65863;49.506;10.400;2023-11-21T12:18:48;97766.72;;;9.00;96.91
9423;BME280;65863;49.506;10.400;2023-11-21T12:21:32;97742.66;;;8.75;96.50
9423;BME280;65863;49.506;10.400;2023-11-21T12:24:17;97789.31;;;9.02;96.30
9423;BME280;65863;49.506;10.400;2023-11-21T12:27:00;97782.00;;;8.99;95.86
9423;BME280;65863;49.506;10.400;2023-11-21T12:29:44;97767.97;;;8.91;96.21
9423;BME280;65863;49.506;10.400;2023-11-21T12:32:29;97792.41;;;8.90;96.70
9423;BME280;65863;49.506;10.400;2023-11-21T12:35:33;97780.59;;;8.84;97.54
9423;BME280;65863;49.506;10.400;2023-11-21T12:38:37;97788.66;;;8.88;97.58
9423;BME280;65863;49.506;10.400;2023-11-21T12:41:40;97669.22;;;8.19;96.63
9423;BME280;65863;49.506;10.400;2023-11-21T12:44:46;97740.41;;;8.74;95.95
9423;BME280;65863;49.506;10.400;2023-11-21T12:47:51;97748.38;;;8.91;95.49
9423;BME280;65863;49.506;10.400;2023-11-21T12:50:54;97789.13;;;9.28;95.74
9423;BME280;65863;49.506;10.400;2023-11-21T12:53:58;97775.34;;;9.30;96.08
9423;BME280;65863;49.506;10.400;2023-11-21T12:56:45;97716.38;;;9.07;93.72
9423;BME280;65863;49.506;10.400;2023-11-21T12:59:31;97753.25;;;9.27;92.96
9423;BME280;65863;49.506;10.400;2023-11-21T13:02:16;97771.25;;;9.32;93.17
9423;BME280;65863;49.506;10.400;2023-11-21T13:05:00;97791.94;;;9.28;94.52
9423;BME280;65863;49.506;10.400;2023-11-21T13:07:50;97772.22;;;9.42;94.22
9423;BME280;65863;49.506;10.400;2023-11-21T13:10:44;97786.91;;;9.63;92.38
9423;BME280;65863;49.506;10.400;2023-11-21T13:13:30;97704.47;;;9.15;90.05
9423;BME280;65863;49.506;10.400;2023-11-21T13:16:15;97777.03;;;9.70;88.18
9423;BME280;65863;49.506;10.400;2023-11-21T13:18:59;97777.38;;;9.59;87.32
9423;BME280;65863;49.506;10.400;2023-11-21T13:21:43;97752.66;;;9.21;87.71
9423;BME280;65863;49.506;10.400;2023-11-21T13:24:27;97741.03;;;9.09;87.91
9423;BME280;65863;49.506;10.400;2023-11-21T13:27:11;97749.53;;;9.24;89.25
9423;BME280;65863;49.506;10.400;2023-11-21T13:30:15;97708.69;;;9.00;87.60
9423;BME280;65863;49.506;10.400;2023-11-21T13:33:01;97774.03;;;9.32;87.97
9423;BME280;65863;49.506;10.400;2023-11-21T13:36:01;97797.94;;;9.33;88.54
9423;BME280;65863;49.506;10.400;2023-11-21T13:38:46;97795.28;;;9.27;90.22
9423;BME280;65863;49.506;10.400;2023-11-21T13:41:30;97781.38;;;9.13;89.36
9423;BME280;65863;49.506;10.400;2023-11-21T13:44:33;97794.34;;;9.24;89.92
9423;BME280;65863;49.506;10.400;2023-11-21T13:47:41;97726.00;;;8.49;90.49
9423;BME280;65863;49.506;10.400;2023-11-21T13:50:44;97692.69;;;8.16;90.29
9423;BME280;65863;49.506;10.400;2023-11-21T13:54:01;97739.34;;;8.42;91.91
9423;BME280;65863;49.506;10.400;2023-11-21T13:57:04;97787.41;;;8.54;92.09
9423;BME280;65863;49.506;10.400;2023-11-21T14:00:08;97816.38;;;8.78;91.71
9423;BME280;65863;49.506;10.400;2023-11-21T14:03:31;97812.00;;;8.69;91.27
9423;BME280;65863;49.506;10.400;2023-11-21T14:06:35;97778.28;;;8.40;90.51
9423;BME280;65863;49.506;10.400;2023-11-21T14:09:49;97781.31;;;8.42;89.91
9423;BME280;65863;49.506;10.400;2023-11-21T14:12:34;97811.19;;;8.82;89.72
9423;BME280;65863;49.506;10.400;2023-11-21T14:15:20;97810.56;;;8.97;88.96
9423;BME280;65863;49.506;10.400;2023-11-21T14:18:04;97752.00;;;8.57;88.25
9423;BME280;65863;49.506;10.400;2023-11-21T14:20:51;97793.47;;;8.87;88.11
9423;BME280;65863;49.506;10.400;2023-11-21T14:23:55;97819.44;;;9.09;87.82
9423;BME280;65863;49.506;10.400;2023-11-21T14:26:42;97822.25;;;9.38;86.51
9423;BME280;65863;49.506;10.400;2023-11-21T14:29:45;97820.66;;;9.50;85.67
9423;BME280;65863;49.506;10.400;2023-11-21T14:32:48;97817.34;;;9.59;83.92
9423;BME280;65863;49.506;10.400;2023-11-21T14:35:51;97804.25;;;9.54;84.27
9423;BME280;65863;49.506;10.400;2023-11-21T14:38:54;97806.66;;;9.50;84.06
9423;BME280;65863;49.506;10.400;2023-11-21T14:41:52;97825.84;;;9.75;83.20
9423;BME280;65863;49.506;10.400;2023-11-21T14:44:56;97825.25;;;9.69;82.02
9423;BME280;65863;49.506;10.400;2023-11-21T14:47:43;97707.22;;;8.78;81.69
9423;BME280;65863;49.506;10.400;2023-11-21T14:50:34;97829.66;;;9.56;82.22
9423;BME280;65863;49.506;10.400;2023-11-21T14:53:36;97825.59;;;9.36;82.58
9423;BME280;65863;49.506;10.400;2023-11-21T14:56:35;97839.88;;;9.46;83.78
9423;BME280;65863;49.506;10.400;2023-11-21T14:59:22;97833.00;;;9.26;83.31
9423;BME280;65863;49.506;10.400;2023-11-21T15:02:06;97824.41;;;9.03;83.30
9423;BME280;65863;49.506;10.400;2023-11-21T15:04:58;97841.34;;;8.97;83.98